Baker, MT (59313)

1:54 AM MDT on October 21, 2014 (GMT -0600)
Baker Municipal | Change Station
CLOSE
Current Station
Airport
Location: Baker,
Elevation: 2972 ft
Nearby Weather Stations

Elev 2972 ft 46.35 °N, 104.26 °W | Updated 1 hour ago

Clear
Clear
45 °F
Feels Like 41 °F
N
8
Wind Variable Wind from ESE

Today
High -- | Low -- °F
--% Chance of Precip.
Yesterday
High -- | Low -- °F
Precip. -- in
7:22 AM 5:59 PM
Waning Crescent, 7% visible
Pressure 29.78 in
Visibility 10.0 miles
Clouds Clear
Windchill 41 °F
Dew Point 40 °F
Humidity 82%
Rainfall 0.00 in
Snow Depth Not available.
UV 0 out of 12
Pollen 1.70 out of 12
Air Quality Not available.
Flu Activity No Activity
METAR KBHK 210651Z AUTO 11007KT 10SM CLR 07/04 A2981 RMK AO2 SLP084 T00720044 402500050

More Conditions Fewer Conditions

Pressure 29.78 in
Visibility 10.0 miles
Clouds Clear
Windchill 41 °F
Dew Point 40 °F
Humidity 82%
Rainfall 0.00 in
Snow Depth Not available.
UV 0 out of 12
Pollen 1.70 out of 12
Air Quality Not available.
Flu Activity No Activity
METAR KBHK 210651Z AUTO 11007KT 10SM CLR 07/04 A2981 RMK AO2 SLP084 T00720044 402500050

More Conditions Fewer Conditions

10-Day Weather Forecast

Almanac

Astronomy

Oct. 21, 2014 Rise Set
Actual Time 7:22 AM MDT 5:59 PM MDT
Civil Twilight 6:52 AM MDT 6:30 PM MDT
Nautical Twilight 6:17 AM MDT 7:05 PM MDT
Astronomical Twilight 5:42 AM MDT 7:40 PM MDT
Moon 5:02 AM MDT 5:01 PM MDT
Length of Visible Light 11h 38m
Length of Day
10h 37m
Tomorrow will be 3m 6s shorter.
Waning Crescent, 7% of the Moon is Illuminated
Today
Waning Crescent
Oct 23
New
Oct 30
First Quarter
Nov 6
Full
Nov 14
Last Quarter

Today's Extremes

State Highs State Lows

Community

WunderPhotos

Upload Photos

1,763,619 photos uploaded!

Nearby

Snow Depth

Station Depth Elevation
Crystal Lake 0 in 6050 ft
Burnt Mountain 0 in 5880 ft
Fisher Creek 2 in 9100 ft
Daisy Peak 0 in 7600 ft
Northeast Entrance 0 in 7350 ft

Earthquake Activity

City Distance Mag. Time & Date
No recent earthquake activity has been reported nearby.
Minimum magnitude displayed is 2.5.

Coastal Water Temperatures

Place Temperature
No Stations Reporting

Nearby Weather Stations